This is the latest recevied weather packets stored in our database for station/object OK1FET-4. If no packets are shown the sender has not sent any weather packets the latest 10 day(s).
| Time | Temp. | Humidity | Pressure | Rain* | Wind** | Luminosity | Snow |
|---|---|---|---|---|---|---|---|
| 1778164873 | 16.11° C | 59% | 1013 hPa | - | - | - | - |
| 1778164573 | 16.67° C | 55% | 1013.1 hPa | - | - | - | - |
| 1778164573 | 16.67° C | 55% | 1013.1 hPa | - | - | - | - |
| 1778164272 | 17.22° C | 53% | 1012.9 hPa | - | - | - | - |
| 1778164272 | 17.22° C | 53% | 1012.9 hPa | - | - | - | - |
| 1778163971 | 18.33° C | 50% | 1012.2 hPa | - | - | - | - |
| 1778163971 | 18.33° C | 50% | 1012.2 hPa | - | - | - | - |
| 1778163671 | 18.89° C | 50% | 1012.8 hPa | - | - | - | - |
| 1778163671 | 18.89° C | 50% | 1012.8 hPa | - | - | - | - |
| 1778163670 | 18.89° C | 50% | 1012.8 hPa | - | - | - | - |
| 1778163370 | 18.89° C | 53% | 1012.8 hPa | - | - | - | - |
| 1778163370 | 18.89° C | 53% | 1012.8 hPa | - | - | - | - |
| 1778163370 | 18.89° C | 53% | 1012.8 hPa | - | - | - | - |
| 1778163069 | 18.33° C | 52% | 1012.9 hPa | - | - | - | - |
| 1778163069 | 18.33° C | 52% | 1012.9 hPa | - | - | - | - |
| 1778162768 | 18.33° C | 51% | 1012.9 hPa | - | - | - | - |
| 1778162768 | 18.33° C | 51% | 1012.9 hPa | - | - | - | - |
| 1778162467 | 19.44° C | 50% | 1012.6 hPa | - | - | - | - |
| 1778162467 | 19.44° C | 50% | 1012.6 hPa | - | - | - | - |
| 1778162167 | 18.89° C | 51% | 1012.9 hPa | - | - | - | - |
| 1778161866 | 18.89° C | 50% | 1012.8 hPa | - | - | - | - |
| 1778161866 | 18.89° C | 50% | 1012.8 hPa | - | - | - | - |
| 1778161565 | 18.89° C | 50% | 1012.9 hPa | - | - | - | - |
| 1778161264 | 18.89° C | 49% | 1012.9 hPa | - | - | - | - |
| 1778161264 | 18.89° C | 49% | 1012.9 hPa | - | - | - | - |
* Rain since midnight (hover to see other rain measurements)
** Current wind speed in m/s (hover to see current wind gust speed)